Time;durP1;ratioP1;P1;durP2;ratioP2;P2;SDS_P1;SDS_P2;PMS_P1;PMS_P2;Temp;Humidity;BMP_temperature;BMP_pressure;BME280_temperature;BME280_humidity;BME280_pressure;Samples;Min_cycle;Max_cycle;Signal;HPM_P1;HPM_P2
2023/10/13 00:01:22;;;;;;;7.00;5.03;;;14.40;1.00;;;;;;5105085;27;20454;-70
2023/10/13 00:03:48;;;;;;;6.33;4.87;;;14.40;1.00;;;;;;5102226;27;20480;-69
2023/10/13 00:06:15;;;;;;;5.43;4.50;;;14.40;1.00;;;;;;5105155;27;20540;-70
2023/10/13 00:08:43;;;;;;;6.87;4.70;;;14.40;1.00;;;;;;5105445;27;20502;-68
2023/10/13 00:11:13;;;;;;;6.10;4.60;;;14.40;1.00;;;;;;5100030;27;20946;-68
2023/10/13 00:13:43;;;;;;;9.73;5.33;;;14.40;1.00;;;;;;5098670;27;20521;-76
2023/10/13 00:16:17;;;;;;;6.83;4.53;;;14.30;1.00;;;;;;5098660;27;20468;-75
2023/10/13 00:18:44;;;;;;;5.70;5.20;;;14.30;1.00;;;;;;5105829;27;20508;-76
2023/10/13 00:21:15;;;;;;;6.37;4.57;;;14.40;1.00;;;;;;5104485;27;20651;-75
2023/10/13 00:23:52;;;;;;;5.20;4.70;;;14.40;1.00;;;;;;5101059;27;20984;-74
2023/10/13 00:26:23;;;;;;;5.67;4.47;;;14.40;1.00;;;;;;5106526;27;20468;-76
2023/10/13 00:28:58;;;;;;;6.03;4.30;;;14.30;1.00;;;;;;5104151;27;20541;-76
2023/10/13 00:31:31;;;;;;;5.80;4.27;;;14.30;1.00;;;;;;5095484;27;21500;-75
2023/10/13 00:34:03;;;;;;;9.70;7.10;;;14.30;1.00;;;;;;5103390;27;20462;-73
2023/10/13 00:36:31;;;;;;;10.80;5.27;;;14.20;1.00;;;;;;5104242;27;21052;-75
2023/10/13 00:38:59;;;;;;;6.20;4.57;;;14.20;1.00;;;;;;5100588;27;21002;-75
2023/10/13 00:41:50;;;;;;;4.87;4.20;;;14.30;1.00;;;;;;5104535;27;20626;-75
2023/10/13 00:44:25;;;;;;;6.87;4.50;;;14.30;1.00;;;;;;5099390;27;20546;-72
2023/10/13 00:46:55;;;;;;;5.83;4.43;;;14.40;1.00;;;;;;5106518;27;20475;-74
2023/10/13 00:49:23;;;;;;;5.93;4.43;;;14.30;1.00;;;;;;5102429;27;20514;-73
2023/10/13 00:51:49;;;;;;;6.43;4.00;;;14.40;1.00;;;;;;5103784;27;20485;-75
2023/10/13 00:54:20;;;;;;;6.60;4.70;;;14.30;1.00;;;;;;5100579;27;20450;-75
2023/10/13 00:56:48;;;;;;;6.97;3.83;;;14.30;1.00;;;;;;5105870;27;20485;-76
2023/10/13 00:59:15;;;;;;;6.53;3.60;;;14.20;1.00;;;;;;5102377;27;20473;-75
2023/10/13 01:01:44;;;;;;;6.10;4.30;;;14.10;1.00;;;;;;5103810;27;20476;-77
2023/10/13 01:04:12;;;;;;;7.90;4.30;;;14.20;1.00;;;;;;5106419;27;20533;-77
2023/10/13 01:06:39;;;;;;;4.80;4.20;;;14.30;1.00;;;;;;5102890;27;20579;-74
2023/10/13 01:09:14;;;;;;;4.80;3.93;;;14.20;1.00;;;;;;5102662;27;20493;-74
2023/10/13 01:11:43;;;;;;;5.03;3.67;;;14.20;1.00;;;;;;5105187;27;20539;-74
2023/10/13 01:14:11;;;;;;;5.03;3.67;;;14.20;1.00;;;;;;5104104;27;20578;-73
2023/10/13 01:16:40;;;;;;;6.80;4.30;;;14.30;1.00;;;;;;5104701;27;20912;-74
2023/10/13 01:19:07;;;;;;;5.07;4.13;;;14.20;1.00;;;;;;5104117;27;20480;-74
2023/10/13 01:21:34;;;;;;;4.50;4.07;;;14.30;1.00;;;;;;5106965;27;20918;-75
2023/10/13 01:24:07;;;;;;;6.00;4.40;;;14.40;1.00;;;;;;5096967;27;20464;-70
2023/10/13 01:26:38;;;;;;;7.40;4.60;;;14.30;1.00;;;;;;5106118;27;20462;-71
2023/10/13 01:29:14;;;;;;;7.13;3.80;;;14.30;1.00;;;;;;5105163;27;20484;-70
2023/10/13 01:31:46;;;;;;;5.73;4.83;;;14.30;1.00;;;;;;5104364;27;20560;-70
2023/10/13 01:34:19;;;;;;;5.47;3.97;;;14.30;1.00;;;;;;5104799;27;20464;-71
2023/10/13 01:36:46;;;;;;;6.60;4.53;;;14.20;1.00;;;;;;5109296;27;20477;-69
2023/10/13 01:39:16;;;;;;;6.60;4.43;;;14.20;1.00;;;;;;5103693;27;20551;-71
2023/10/13 01:41:43;;;;;;;9.73;5.50;;;14.20;1.00;;;;;;5100361;27;22131;-70
2023/10/13 01:44:11;;;;;;;5.70;5.13;;;14.20;1.00;;;;;;5101715;27;20835;-73
2023/10/13 01:46:38;;;;;;;6.40;4.70;;;14.20;1.00;;;;;;5103169;27;20475;-71
2023/10/13 01:49:04;;;;;;;9.93;5.50;;;14.30;1.00;;;;;;5104092;27;20555;-71
2023/10/13 01:51:31;;;;;;;10.03;4.87;;;14.30;1.00;;;;;;5104540;27;20550;-70
2023/10/13 01:53:57;;;;;;;7.43;5.30;;;14.20;1.00;;;;;;5106364;27;20460;-70
2023/10/13 01:56:30;;;;;;;8.00;5.77;;;14.20;1.00;;;;;;5097077;27;20455;-71
2023/10/13 01:58:56;;;;;;;14.83;5.60;;;14.20;1.00;;;;;;5105744;27;20474;-70
2023/10/13 02:01:27;;;;;;;10.17;5.43;;;14.20;1.00;;;;;;5106200;27;20468;-70
2023/10/13 02:04:03;;;;;;;15.53;5.87;;;14.20;1.00;;;;;;5108237;27;20452;-70
2023/10/13 02:06:32;;;;;;;9.03;5.90;;;14.20;1.00;;;;;;5108171;27;20459;-72
2023/10/13 02:09:10;;;;;;;8.70;5.50;;;14.20;1.00;;;;;;5103918;27;22177;-70
2023/10/13 02:11:38;;;;;;;8.83;6.17;;;14.20;1.00;;;;;;5101225;27;20468;-71
2023/10/13 02:14:05;;;;;;;7.30;5.60;;;14.30;1.00;;;;;;5100931;27;20524;-72
2023/10/13 02:16:31;;;;;;;10.80;6.23;;;14.30;1.00;;;;;;5103286;27;20461;-70
2023/10/13 02:19:03;;;;;;;9.43;6.33;;;14.30;1.00;;;;;;5104511;27;20613;-70
2023/10/13 02:21:31;;;;;;;10.90;6.23;;;14.30;1.00;;;;;;5103762;27;21500;-70
2023/10/13 02:24:00;;;;;;;12.60;6.27;;;14.30;1.00;;;;;;5102855;27;20990;-70
2023/10/13 02:26:38;;;;;;;16.40;7.60;;;14.20;1.00;;;;;;5105365;27;20984;-71
2023/10/13 02:29:07;;;;;;;10.60;6.10;;;14.10;1.00;;;;;;5106149;27;20558;-71
2023/10/13 02:31:35;;;;;;;13.73;7.07;;;14.10;1.00;;;;;;5105572;27;21022;-73
2023/10/13 02:34:06;;;;;;;11.93;6.40;;;14.00;1.00;;;;;;5105123;27;20463;-72
2023/10/13 02:36:36;;;;;;;9.77;6.63;;;14.10;1.00;;;;;;5105605;27;20471;-77
2023/10/13 02:39:07;;;;;;;14.03;7.67;;;14.00;1.00;;;;;;5105946;27;20608;-74
2023/10/13 02:41:36;;;;;;;9.43;7.03;;;14.00;1.00;;;;;;5109182;27;20517;-72
2023/10/13 02:44:05;;;;;;;12.50;7.57;;;14.10;1.00;;;;;;5105738;27;20895;-74
2023/10/13 02:46:35;;;;;;;8.90;6.83;;;14.10;1.00;;;;;;5105436;27;21776;-74
2023/10/13 02:49:10;;;;;;;10.60;6.60;;;14.20;1.00;;;;;;5104273;27;20619;-73
2023/10/13 02:51:36;;;;;;;8.37;6.50;;;14.30;1.00;;;;;;5104929;27;20975;-75
2023/10/13 02:54:09;;;;;;;12.10;7.50;;;14.40;1.00;;;;;;5099052;27;20507;-76
2023/10/13 02:56:36;;;;;;;10.47;6.73;;;14.30;1.00;;;;;;5103815;27;21246;-76
2023/10/13 02:59:04;;;;;;;10.73;7.57;;;14.30;1.00;;;;;;5103575;27;20987;-71
2023/10/13 03:01:34;;;;;;;13.00;7.43;;;14.40;1.00;;;;;;5108072;27;20968;-76
2023/10/13 03:04:01;;;;;;;14.90;9.17;;;14.30;1.00;;;;;;5105506;27;20576;-74
2023/10/13 03:06:33;;;;;;;9.30;7.83;;;14.40;1.00;;;;;;5108430;27;20579;-74
2023/10/13 03:09:13;;;;;;;12.33;8.20;;;14.30;1.00;;;;;;5105672;27;20515;-76
2023/10/13 03:11:42;;;;;;;10.00;7.93;;;14.30;1.00;;;;;;5102167;27;20469;-72
2023/10/13 03:14:08;;;;;;;13.20;8.27;;;14.30;1.00;;;;;;5095153;27;20580;-74
2023/10/13 03:16:37;;;;;;;11.53;8.80;;;14.30;1.00;;;;;;5102137;27;20563;-74
2023/10/13 03:19:07;;;;;;;14.27;8.77;;;14.30;1.00;;;;;;5104773;27;20463;-77
2023/10/13 03:21:36;;;;;;;13.87;8.80;;;14.30;1.00;;;;;;5110308;27;20521;-75
2023/10/13 03:24:06;;;;;;;10.10;9.10;;;14.30;1.00;;;;;;5107042;27;20507;-75
2023/10/13 03:26:36;;;;;;;13.73;10.80;;;14.30;1.00;;;;;;5105373;27;20549;-74
2023/10/13 03:29:03;;;;;;;16.03;10.73;;;14.30;1.00;;;;;;5105025;27;20901;-74
2023/10/13 03:31:36;;;;;;;11.63;8.83;;;14.30;1.00;;;;;;5099587;27;20554;-72
2023/10/13 03:34:09;;;;;;;11.70;9.70;;;14.30;1.00;;;;;;5107476;27;20504;-74
2023/10/13 03:39:27;;;;;;;12.63;10.33;;;14.40;1.00;;;;;;5107072;27;21020;-74
2023/10/13 03:41:54;;;;;;;12.70;11.40;;;14.40;1.00;;;;;;5104519;27;20472;-76
2023/10/13 03:44:21;;;;;;;11.50;10.23;;;14.30;1.00;;;;;;5101134;27;20464;-74
2023/10/13 03:46:49;;;;;;;16.57;10.83;;;14.30;1.00;;;;;;5106691;27;20448;-75
2023/10/13 03:49:21;;;;;;;15.53;13.60;;;14.30;1.00;;;;;;5104101;27;20500;-74
2023/10/13 03:51:48;;;;;;;14.90;11.10;;;14.40;1.00;;;;;;5104051;27;20436;-76
2023/10/13 03:54:16;;;;;;;15.90;13.50;;;14.50;1.00;;;;;;5106229;27;20638;-75
2023/10/13 03:56:45;;;;;;;15.93;12.00;;;14.50;1.00;;;;;;5107733;27;20439;-78
2023/10/13 03:59:19;;;;;;;15.63;11.60;;;14.50;1.00;;;;;;5102692;27;20486;-74
2023/10/13 04:01:47;;;;;;;13.97;12.00;;;14.50;1.00;;;;;;5111533;27;20471;-76
2023/10/13 04:04:15;;;;;;;17.00;11.97;;;14.50;1.00;;;;;;5098119;27;20472;-75
2023/10/13 04:07:13;;;;;;;19.30;13.30;;;14.50;1.00;;;;;;5097406;27;20547;-73
2023/10/13 04:10:19;;;;;;;13.17;11.00;;;14.50;1.00;;;;;;5102512;27;20428;-73
2023/10/13 04:15:36;;;;;;;20.27;14.57;;;14.60;1.00;;;;;;5107821;27;20568;-75
2023/10/13 04:18:13;;;;;;;17.90;14.70;;;14.60;1.00;;;;;;5108868;27;21013;-75
2023/10/13 04:20:46;;;;;;;20.73;14.83;;;14.60;1.00;;;;;;5107528;27;20587;-74
2023/10/13 04:23:22;;;;;;;16.13;13.57;;;14.60;1.00;;;;;;5107939;27;20485;-73
2023/10/13 04:28:50;;;;;;;17.90;14.17;;;14.70;1.00;;;;;;5109473;27;20591;-74
2023/10/13 04:31:46;;;;;;;20.77;15.40;;;14.70;1.00;;;;;;5107220;27;20463;-72
2023/10/13 04:34:27;;;;;;;20.27;15.90;;;14.70;1.00;;;;;;5109238;27;20478;-75
2023/10/13 04:37:11;;;;;;;18.13;14.40;;;14.80;1.00;;;;;;5112929;27;20455;-75
2023/10/13 04:39:39;;;;;;;21.33;15.27;;;14.80;1.00;;;;;;5113927;27;20467;-75
2023/10/13 04:42:13;;;;;;;17.47;15.10;;;14.80;1.00;;;;;;5116099;27;20457;-75
2023/10/13 04:44:48;;;;;;;17.83;14.57;;;14.80;1.00;;;;;;5115290;27;20468;-74
2023/10/13 04:47:22;;;;;;;19.10;15.40;;;14.80;1.00;;;;;;5113565;27;20908;-74
2023/10/13 04:49:52;;;;;;;20.37;15.40;;;14.90;1.00;;;;;;5105974;27;20529;-74
2023/10/13 04:55:43;;;;;;;18.90;15.40;;;14.90;1.00;;;;;;5109174;27;20469;-74
2023/10/13 04:58:14;;;;;;;20.20;17.73;;;14.90;1.00;;;;;;5111779;27;20526;-74
2023/10/13 05:00:56;;;;;;;16.90;15.10;;;14.80;1.00;;;;;;5114192;27;20473;-74
2023/10/13 05:03:52;;;;;;;17.70;15.70;;;14.80;1.00;;;;;;5112629;27;20511;-75
2023/10/13 05:47:50;;;;;;;21.37;17.53;;;15.40;1.00;;;;;;5110286;27;20487;-73
2023/10/13 05:50:49;;;;;;;18.83;16.50;;;15.40;1.00;;;;;;5107542;27;20896;-72
2023/10/13 06:29:01;;;;;;;17.27;15.60;;;15.50;1.00;;;;;;5101047;27;20524;-72
2023/10/13 06:31:28;;;;;;;17.30;15.50;;;15.60;1.00;;;;;;5102420;27;20539;-74
2023/10/13 06:33:56;;;;;;;18.37;16.30;;;15.60;1.00;;;;;;5102525;27;20999;-71
2023/10/13 06:36:23;;;;;;;17.93;16.20;;;15.60;1.00;;;;;;5103981;27;20524;-72
2023/10/13 06:39:20;;;;;;;18.20;16.30;;;15.50;1.00;;;;;;5096041;27;20957;-71
2023/10/13 06:41:43;;;;;;;18.10;16.17;;;15.60;1.00;;;;;;5101857;27;20461;-71
2023/10/13 06:44:15;;;;;;;18.67;15.93;;;15.60;1.00;;;;;;5102662;27;20473;-75
2023/10/13 06:46:43;;;;;;;17.90;15.53;;;15.70;1.00;;;;;;5101617;27;20446;-74
2023/10/13 06:49:13;;;;;;;17.17;15.37;;;15.80;1.00;;;;;;5104350;27;20454;-71
2023/10/13 06:51:40;;;;;;;20.13;16.43;;;15.80;1.00;;;;;;5103314;27;20449;-72
2023/10/13 06:54:12;;;;;;;17.57;15.13;;;15.70;1.00;;;;;;5103813;27;20457;-74
2023/10/13 06:56:40;;;;;;;17.33;15.30;;;15.80;1.00;;;;;;5104812;27;20453;-72
2023/10/13 06:59:07;;;;;;;16.70;15.10;;;15.70;1.00;;;;;;5097045;27;20460;-70
2023/10/13 07:01:38;;;;;;;16.10;14.40;;;15.80;1.00;;;;;;5103969;27;20454;-75
2023/10/13 07:04:12;;;;;;;18.20;16.03;;;15.90;1.00;;;;;;5102396;27;20473;-76
2023/10/13 07:06:54;;;;;;;18.40;13.70;;;16.10;1.00;;;;;;5103480;27;20964;-74
2023/10/13 07:12:16;;;;;;;16.10;14.30;;;16.30;1.00;;;;;;5102679;27;20472;-75
2023/10/13 07:14:51;;;;;;;15.03;13.63;;;16.50;1.00;;;;;;5105172;27;20481;-71
2023/10/13 07:17:23;;;;;;;15.30;13.83;;;16.70;1.00;;;;;;5103892;27;20469;-71
2023/10/13 07:19:54;;;;;;;15.47;13.10;;;16.80;1.00;;;;;;5105452;27;21324;-74
2023/10/13 07:22:25;;;;;;;13.83;12.43;;;16.90;1.00;;;;;;5106282;27;21205;-72
2023/10/13 07:24:52;;;;;;;14.27;12.73;;;17.10;1.00;;;;;;5105580;27;20469;-73
2023/10/13 07:27:24;;;;;;;12.60;11.30;;;17.20;1.00;;;;;;5100966;27;20486;-73
2023/10/13 07:29:56;;;;;;;16.13;12.30;;;17.20;1.00;;;;;;5102305;27;20944;-72
2023/10/13 07:32:25;;;;;;;14.00;12.50;;;17.30;1.00;;;;;;5105418;27;20850;-70
2023/10/13 07:34:57;;;;;;;12.03;10.50;;;17.40;1.00;;;;;;5100157;27;20485;-70
2023/10/13 07:37:28;;;;;;;14.90;10.97;;;17.40;1.00;;;;;;5106962;27;20503;-70
2023/10/13 07:40:00;;;;;;;12.43;11.13;;;17.30;1.00;;;;;;5103380;27;20465;-71
2023/10/13 07:42:31;;;;;;;13.07;11.87;;;17.30;1.00;;;;;;5101352;27;20505;-71
2023/10/13 07:44:59;;;;;;;13.97;10.63;;;17.40;1.00;;;;;;5103418;27;20496;-69
2023/10/13 07:47:28;;;;;;;12.00;10.63;;;17.60;1.00;;;;;;5101200;27;20438;-70
2023/10/13 07:49:56;;;;;;;10.83;9.73;;;17.70;1.00;;;;;;5098180;27;20474;-69
2023/10/13 07:52:36;;;;;;;12.80;10.47;;;17.80;1.00;;;;;;5092473;27;20459;-71
2023/10/13 07:55:13;;;;;;;11.43;10.20;;;17.90;1.00;;;;;;5103562;27;20492;-76
2023/10/13 07:57:54;;;;;;;10.57;9.53;;;17.90;1.00;;;;;;5100625;27;20443;-72
2023/10/13 08:00:38;;;;;;;14.37;10.00;;;18.00;1.00;;;;;;5101241;27;20979;-73
2023/10/13 08:03:31;;;;;;;12.67;9.90;;;18.00;1.00;;;;;;5102046;27;20533;-69
2023/10/13 08:06:04;;;;;;;10.53;9.43;;;18.10;1.00;;;;;;5102692;27;20474;-69
2023/10/13 08:08:37;;;;;;;10.67;9.00;;;18.00;1.00;;;;;;5101506;27;20479;-73
2023/10/13 08:11:11;;;;;;;9.50;8.60;;;18.00;1.00;;;;;;5101465;27;20470;-70
2023/10/13 08:13:40;;;;;;;10.17;9.27;;;18.10;1.00;;;;;;5098450;27;20808;-71
2023/10/13 08:16:09;;;;;;;10.77;9.57;;;18.10;1.00;;;;;;5100741;27;20471;-71
2023/10/13 08:18:41;;;;;;;10.83;9.23;;;18.20;1.00;;;;;;5103194;27;20457;-71
2023/10/13 08:21:16;;;;;;;10.00;9.07;;;18.20;1.00;;;;;;5104647;27;20454;-71
2023/10/13 08:24:06;;;;;;;9.53;8.10;;;18.30;1.00;;;;;;5097665;27;20542;-72
2023/10/13 08:26:56;;;;;;;11.63;9.90;;;18.30;1.00;;;;;;5100550;27;20495;-73
2023/10/13 08:32:34;;;;;;;9.00;8.10;;;18.60;1.00;;;;;;5061218;27;20948;-71
2023/10/13 08:35:22;;;;;;;9.50;7.70;;;18.70;1.00;;;;;;5102632;27;20441;-71
2023/10/13 08:37:59;;;;;;;10.00;8.40;;;19.00;1.00;;;;;;5095868;27;20479;-73
2023/10/13 08:41:25;;;;;;;9.13;7.80;;;19.10;1.00;;;;;;5101658;27;20941;-73
2023/10/13 08:43:42;;;;;;;9.87;8.77;;;19.00;1.00;;;;;;5101539;27;20532;-73
2023/10/13 08:46:24;;;;;;;8.90;8.10;;;18.90;1.00;;;;;;5100619;27;20498;-72
2023/10/13 08:49:04;;;;;;;9.20;8.40;;;18.80;1.00;;;;;;5098868;27;21309;-72
2023/10/13 08:51:44;;;;;;;9.20;8.27;;;18.70;1.00;;;;;;5101026;27;20520;-72
2023/10/13 08:54:20;;;;;;;8.57;7.87;;;18.80;1.00;;;;;;5099260;27;20909;-74
2023/10/13 08:56:56;;;;;;;9.10;8.20;;;18.80;1.00;;;;;;5098638;27;20500;-71
2023/10/13 08:59:33;;;;;;;9.00;8.10;;;18.90;1.00;;;;;;5096056;27;21279;-70
2023/10/13 09:01:59;;;;;;;9.70;8.70;;;18.90;1.00;;;;;;5101776;27;20453;-71
2023/10/13 09:04:33;;;;;;;9.77;8.03;;;19.00;1.00;;;;;;5099190;27;20471;-71
2023/10/13 09:07:07;;;;;;;9.03;8.23;;;18.90;1.00;;;;;;5101608;27;20619;-71
2023/10/13 09:09:59;;;;;;;10.13;8.17;;;18.90;1.00;;;;;;5100576;27;20570;-72
2023/10/13 09:12:39;;;;;;;8.17;7.47;;;18.90;1.00;;;;;;5099416;27;20592;-70
2023/10/13 09:15:18;;;;;;;10.37;8.17;;;19.00;1.00;;;;;;5103703;27;20463;-70
2023/10/13 09:17:52;;;;;;;8.57;7.77;;;19.00;1.00;;;;;;5107460;27;20550;-71
2023/10/13 09:20:42;;;;;;;9.37;8.20;;;19.10;1.00;;;;;;5102555;27;21193;-72
2023/10/13 09:23:12;;;;;;;8.13;7.37;;;19.30;1.00;;;;;;5102569;27;20468;-70
2023/10/13 09:25:53;;;;;;;7.77;7.07;;;19.20;1.00;;;;;;5101979;27;20529;-71
2023/10/13 09:28:22;;;;;;;8.73;7.20;;;19.00;1.00;;;;;;5100998;27;20515;-73
2023/10/13 09:30:52;;;;;;;9.47;7.63;;;18.90;1.00;;;;;;5101686;27;20556;-72
2023/10/13 09:33:28;;;;;;;9.13;7.93;;;18.90;1.00;;;;;;5101159;27;20482;-74
2023/10/13 09:35:59;;;;;;;9.60;7.57;;;18.90;1.00;;;;;;5105819;27;21234;-78
2023/10/13 09:38:25;;;;;;;8.20;7.50;;;18.80;1.00;;;;;;5104023;27;20463;-76
2023/10/13 09:40:57;;;;;;;9.37;8.03;;;18.70;1.00;;;;;;5107237;27;21015;-78
2023/10/13 09:43:28;;;;;;;8.80;8.00;;;18.60;1.00;;;;;;5108178;27;22100;-77
2023/10/13 09:46:04;;;;;;;8.73;7.80;;;18.60;1.00;;;;;;5105486;27;20574;-78
2023/10/13 09:48:34;;;;;;;9.27;8.37;;;18.50;1.00;;;;;;5107219;27;20963;-77
2023/10/13 09:51:08;;;;;;;10.43;7.67;;;18.50;1.00;;;;;;5110397;27;20499;-78
2023/10/13 09:53:37;;;;;;;7.87;7.13;;;18.40;1.00;;;;;;5106669;27;20422;-80
2023/10/13 09:56:13;;;;;;;8.30;7.50;;;18.40;1.00;;;;;;5109312;27;20529;-78
2023/10/13 09:58:51;;;;;;;10.90;8.37;;;18.40;1.00;;;;;;5104401;27;20455;-78
2023/10/13 10:01:31;;;;;;;8.83;7.93;;;18.50;1.00;;;;;;5104259;27;20484;-76
2023/10/13 10:04:08;;;;;;;8.57;7.10;;;18.50;1.00;;;;;;5105587;27;20514;-75
2023/10/13 10:06:43;;;;;;;8.57;7.70;;;18.50;1.00;;;;;;5105872;27;20518;-79
2023/10/13 10:09:13;;;;;;;9.10;8.20;;;18.40;1.00;;;;;;5106639;27;21229;-72
2023/10/13 10:12:11;;;;;;;11.03;9.13;;;18.40;1.00;;;;;;5105794;27;20925;-78
2023/10/13 10:15:06;;;;;;;8.03;7.33;;;18.40;1.00;;;;;;5096217;27;20435;-74
2023/10/13 10:17:41;;;;;;;9.37;7.50;;;18.40;1.00;;;;;;5104489;27;20990;-79
2023/10/13 10:20:19;;;;;;;8.20;7.43;;;18.40;1.00;;;;;;5107362;27;21117;-78
2023/10/13 10:22:58;;;;;;;14.37;12.97;;;18.40;1.00;;;;;;5108354;27;20482;-81
2023/10/13 10:25:34;;;;;;;9.23;7.77;;;18.40;1.00;;;;;;5108153;27;20465;-78
2023/10/13 10:28:05;;;;;;;9.87;8.60;;;18.40;1.00;;;;;;5108560;27;20475;-76
2023/10/13 10:30:38;;;;;;;8.20;7.50;;;18.40;1.00;;;;;;5103795;27;20493;-78
2023/10/13 10:33:12;;;;;;;7.80;7.13;;;18.50;1.00;;;;;;5101257;27;21317;-80
2023/10/13 10:35:40;;;;;;;8.10;7.30;;;18.40;1.00;;;;;;5106411;27;20576;-79
2023/10/13 10:38:16;;;;;;;9.23;7.13;;;18.40;1.00;;;;;;5107819;27;20559;-79
2023/10/13 10:40:57;;;;;;;10.30;8.70;;;18.40;1.00;;;;;;5108363;27;20917;-77
2023/10/13 10:43:41;;;;;;;11.10;7.80;;;18.30;1.00;;;;;;5110960;27;20535;-80
2023/10/13 10:46:10;;;;;;;7.70;7.00;;;18.30;1.00;;;;;;5101024;27;20472;-76
2023/10/13 10:48:42;;;;;;;8.40;7.10;;;18.40;1.00;;;;;;5103359;27;20461;-75
2023/10/13 10:51:21;;;;;;;8.40;7.30;;;18.40;1.00;;;;;;5102978;27;20486;-74
2023/10/13 10:53:49;;;;;;;9.63;8.67;;;18.40;1.00;;;;;;5103398;27;20485;-74
2023/10/13 10:56:24;;;;;;;9.37;7.60;;;18.40;1.00;;;;;;5107916;27;20477;-72
2023/10/13 10:58:55;;;;;;;7.10;6.50;;;18.40;1.00;;;;;;5111305;27;20516;-76
2023/10/13 11:01:24;;;;;;;9.47;7.77;;;18.30;1.00;;;;;;5108756;27;20479;-75
2023/10/13 11:03:58;;;;;;;8.67;7.83;;;18.30;1.00;;;;;;5110841;27;20471;-76
2023/10/13 11:06:26;;;;;;;8.80;7.90;;;18.20;1.00;;;;;;5110969;27;20450;-77
2023/10/13 11:09:07;;;;;;;13.20;8.13;;;18.20;1.00;;;;;;5105761;27;20509;-75
2023/10/13 11:11:35;;;;;;;10.10;8.77;;;18.20;1.00;;;;;;5109547;27;20516;-77
2023/10/13 11:14:17;;;;;;;8.90;8.17;;;18.30;1.00;;;;;;5108910;27;20467;-77
2023/10/13 11:16:53;;;;;;;10.13;8.63;;;18.30;1.00;;;;;;5109650;27;20485;-76
2023/10/13 11:19:27;;;;;;;9.17;8.23;;;18.30;1.00;;;;;;5106290;27;20458;-77
2023/10/13 11:21:56;;;;;;;11.83;8.47;;;18.30;1.00;;;;;;5100304;27;20907;-76
2023/10/13 11:24:23;;;;;;;9.37;8.27;;;18.40;1.00;;;;;;5108188;27;20462;-77
2023/10/13 11:26:52;;;;;;;10.10;8.33;;;18.40;1.00;;;;;;5105117;27;20530;-77
2023/10/13 11:29:20;;;;;;;10.70;9.30;;;18.40;1.00;;;;;;5110080;27;20504;-76
2023/10/13 11:31:54;;;;;;;9.63;8.70;;;18.40;1.00;;;;;;5109981;27;20495;-76
2023/10/13 11:34:22;;;;;;;9.47;8.47;;;18.50;1.00;;;;;;5110141;27;20531;-77
2023/10/13 11:36:48;;;;;;;10.20;8.10;;;18.50;1.00;;;;;;5107473;27;20461;-74
2023/10/13 11:39:23;;;;;;;11.43;9.00;;;18.50;1.00;;;;;;5106146;27;20556;-76
2023/10/13 11:41:53;;;;;;;12.07;9.33;;;18.50;1.00;;;;;;5109592;27;20514;-75
2023/10/13 11:44:23;;;;;;;10.70;8.20;;;18.60;1.00;;;;;;5105646;27;20479;-76
2023/10/13 11:47:08;;;;;;;9.53;8.30;;;18.60;1.00;;;;;;5112618;27;20455;-77
2023/10/13 11:49:37;;;;;;;9.63;8.60;;;18.60;1.00;;;;;;5107845;27;20460;-79
2023/10/13 11:52:15;;;;;;;9.53;8.53;;;18.60;1.00;;;;;;5109949;27;20463;-74
2023/10/13 11:54:43;;;;;;;9.17;7.30;;;18.60;1.00;;;;;;5107097;27;20576;-77
2023/10/13 11:57:10;;;;;;;9.97;8.33;;;18.60;1.00;;;;;;5112486;27;20465;-77
2023/10/13 11:59:44;;;;;;;8.10;7.30;;;18.60;1.00;;;;;;5107248;27;20592;-76
2023/10/13 12:04:59;;;;;;;10.23;8.40;;;18.70;1.00;;;;;;5109060;27;20965;-75
2023/10/13 12:07:42;;;;;;;8.83;7.93;;;18.80;1.00;;;;;;5107377;27;22516;-77
2023/10/13 12:10:16;;;;;;;11.07;7.70;;;18.80;1.00;;;;;;5110824;27;20471;-74
2023/10/13 12:12:46;;;;;;;8.53;7.63;;;18.90;1.00;;;;;;5106338;27;20452;-75
2023/10/13 12:15:26;;;;;;;9.13;6.57;;;19.10;1.00;;;;;;5111339;27;20882;-76
2023/10/13 12:17:57;;;;;;;8.50;7.60;;;19.10;1.00;;;;;;5109714;27;20493;-77
2023/10/13 12:20:33;;;;;;;8.90;7.20;;;19.30;1.00;;;;;;5104653;27;20460;-74
2023/10/13 12:23:09;;;;;;;9.07;7.17;;;19.40;1.00;;;;;;5108191;27;20535;-74
2023/10/13 12:25:54;;;;;;;8.90;7.00;;;19.40;1.00;;;;;;5109693;27;20476;-76
2023/10/13 12:28:23;;;;;;;8.70;7.63;;;19.50;1.00;;;;;;5110486;27;20998;-76
2023/10/13 12:30:52;;;;;;;7.57;6.70;;;19.60;1.00;;;;;;5108704;27;20971;-77
2023/10/13 12:33:27;;;;;;;8.23;7.00;;;19.70;1.00;;;;;;5107078;27;20895;-73
2023/10/13 12:49:49;;;;;;;8.20;6.77;;;20.20;1.00;;;;;;5110670;27;20503;-77
2023/10/13 12:52:19;;;;;;;10.57;7.20;;;20.30;1.00;;;;;;5107844;27;20467;-75
2023/10/13 12:54:58;;;;;;;14.77;7.70;;;20.40;1.00;;;;;;5114617;27;20455;-75
2023/10/13 12:57:28;;;;;;;8.70;7.60;;;20.50;1.00;;;;;;5137110;27;20458;-76
2023/10/13 12:59:56;;;;;;;10.40;7.03;;;20.60;1.00;;;;;;5110733;27;20892;-76
2023/10/13 13:02:24;;;;;;;8.33;7.40;;;20.80;1.00;;;;;;5110581;27;20425;-77
2023/10/13 13:04:56;;;;;;;9.47;6.87;;;20.90;1.00;;;;;;5110653;27;20866;-71
2023/10/13 13:07:29;;;;;;;10.33;7.00;;;21.10;1.00;;;;;;5106215;27;20466;-70
2023/10/13 13:09:58;;;;;;;8.37;7.27;;;21.10;1.00;;;;;;5109804;27;20546;-70
2023/10/13 13:12:25;;;;;;;9.90;7.23;;;21.20;1.00;;;;;;5111015;27;20454;-69
2023/10/13 13:14:54;;;;;;;7.80;6.47;;;21.30;1.00;;;;;;5112770;27;20461;-74
2023/10/13 13:17:21;;;;;;;9.83;7.07;;;21.40;1.00;;;;;;5107850;27;21003;-70
2023/10/13 13:19:48;;;;;;;8.77;7.83;;;21.50;1.00;;;;;;5111969;27;20902;-69
2023/10/13 13:22:17;;;;;;;14.63;7.27;;;21.70;1.00;;;;;;5107627;27;20464;-70
2023/10/13 13:24:46;;;;;;;8.93;6.60;;;21.80;1.00;;;;;;5111240;27;20440;-71
2023/10/13 13:27:14;;;;;;;8.10;6.27;;;21.90;1.00;;;;;;5113191;27;20471;-69
2023/10/13 13:29:41;;;;;;;8.90;6.70;;;22.00;1.00;;;;;;5110651;27;20509;-70
2023/10/13 13:32:17;;;;;;;8.87;6.67;;;22.10;1.00;;;;;;5112647;27;20449;-68
2023/10/13 13:34:44;;;;;;;7.40;6.70;;;22.30;1.00;;;;;;5111993;27;20558;-72
2023/10/13 13:37:13;;;;;;;11.23;8.30;;;22.50;1.00;;;;;;5110387;27;20560;-69
2023/10/13 13:39:45;;;;;;;11.30;7.17;;;22.50;1.00;;;;;;5112471;27;20480;-70
2023/10/13 13:42:17;;;;;;;9.47;6.70;;;22.50;1.00;;;;;;5111393;27;20482;-71
2023/10/13 13:44:46;;;;;;;8.70;6.97;;;22.40;1.00;;;;;;5110382;27;21285;-69
2023/10/13 13:47:13;;;;;;;11.70;6.77;;;22.30;1.00;;;;;;5107669;27;20475;-71
2023/10/13 13:49:40;;;;;;;11.17;6.83;;;22.20;1.00;;;;;;5108779;27;20489;-71
2023/10/13 13:52:08;;;;;;;7.97;6.57;;;22.20;1.00;;;;;;5102261;27;20510;-71
2023/10/13 13:54:35;;;;;;;10.03;7.53;;;22.10;1.00;;;;;;5110177;27;20546;-68
2023/10/13 13:57:04;;;;;;;8.90;7.03;;;22.10;1.00;;;;;;5112038;27;20898;-69
2023/10/13 13:59:33;;;;;;;13.03;7.47;;;22.00;1.00;;;;;;5110254;27;20532;-70
2023/10/13 14:02:05;;;;;;;13.07;6.73;;;22.00;1.00;;;;;;5109217;27;21011;-69
2023/10/13 14:04:34;;;;;;;12.83;6.90;;;22.20;1.00;;;;;;5104873;27;20933;-70
2023/10/13 14:07:06;;;;;;;10.10;7.70;;;22.50;1.00;;;;;;5109838;27;20463;-70
2023/10/13 14:09:40;;;;;;;8.40;6.03;;;22.70;1.00;;;;;;5108057;27;20492;-70
2023/10/13 14:12:29;;;;;;;9.07;6.40;;;22.90;1.00;;;;;;5109733;27;20485;-68
2023/10/13 14:14:56;;;;;;;7.53;6.37;;;23.00;1.00;;;;;;5111903;27;20601;-72
2023/10/13 14:17:28;;;;;;;10.80;6.70;;;23.10;1.00;;;;;;5110343;27;20558;-72
2023/10/13 14:19:56;;;;;;;11.00;6.50;;;23.20;1.00;;;;;;5110156;27;20455;-73
2023/10/13 14:22:25;;;;;;;11.33;6.23;;;23.20;1.00;;;;;;5110309;27;20455;-73
2023/10/13 14:24:54;;;;;;;10.23;6.70;;;23.00;1.00;;;;;;5104019;27;20458;-73
2023/10/13 14:27:25;;;;;;;11.20;7.33;;;22.90;1.00;;;;;;5113264;27;20788;-73
2023/10/13 14:29:53;;;;;;;8.80;7.23;;;22.90;1.00;;;;;;5111776;27;20446;-73
2023/10/13 14:32:24;;;;;;;9.20;6.83;;;22.90;1.00;;;;;;5110002;27;20626;-72
2023/10/13 14:34:56;;;;;;;11.80;7.20;;;22.90;1.00;;;;;;5113729;27;20455;-73
2023/10/13 14:37:28;;;;;;;8.37;6.43;;;22.90;1.00;;;;;;5111905;27;20589;-73
2023/10/13 14:39:56;;;;;;;12.13;7.37;;;22.90;1.00;;;;;;5113245;27;20523;-72
2023/10/13 14:42:26;;;;;;;8.20;6.40;;;22.90;1.00;;;;;;5108823;27;20440;-73
2023/10/13 14:44:56;;;;;;;7.87;6.10;;;22.90;1.00;;;;;;5105300;27;20463;-74
2023/10/13 14:47:24;;;;;;;9.97;6.73;;;22.90;1.00;;;;;;5111944;27;20565;-72
2023/10/13 14:49:54;;;;;;;11.17;6.80;;;23.00;1.00;;;;;;5108823;27;20955;-73
2023/10/13 14:52:22;;;;;;;15.50;7.17;;;23.00;1.00;;;;;;5107753;27;20455;-72
2023/10/13 14:54:54;;;;;;;10.23;6.73;;;23.00;1.00;;;;;;5109189;27;20520;-72
2023/10/13 14:57:24;;;;;;;13.00;7.00;;;22.90;1.00;;;;;;5111297;27;20992;-71
2023/10/13 14:59:53;;;;;;;10.90;6.60;;;22.80;1.00;;;;;;5113576;27;20450;-73
2023/10/13 15:02:20;;;;;;;9.70;7.40;;;22.60;1.00;;;;;;5110334;27;20547;-72
2023/10/13 15:04:49;;;;;;;11.80;7.43;;;22.60;1.00;;;;;;5101766;27;20472;-72
2023/10/13 15:07:17;;;;;;;10.80;6.97;;;22.50;1.00;;;;;;5110697;27;20474;-73
2023/10/13 15:09:44;;;;;;;11.47;7.23;;;22.40;1.00;;;;;;5110654;27;20453;-72